Time;durP1;ratioP1;P1;durP2;ratioP2;P2;SDS_P1;SDS_P2;PMS_P1;PMS_P2;Temp;Humidity;BMP_temperature;BMP_pressure;BME280_temperature;BME280_humidity;BME280_pressure;Samples;Min_cycle;Max_cycle;Signal;HPM_P1;HPM_P2
2021/09/02 00:02:18;;;;;;;9.40;4.23;;;;;;;24.44;44.56;98881.03;5086226;28;20204;-66
2021/09/02 00:04:45;;;;;;;6.50;4.40;;;;;;;24.25;44.16;98877.97;5083307;28;20219;-65
2021/09/02 00:07:13;;;;;;;6.87;4.20;;;;;;;24.20;44.95;98871.66;5086386;28;20656;-65
2021/09/02 00:09:40;;;;;;;6.07;4.20;;;;;;;24.60;44.44;98874.53;5084945;28;20239;-66
2021/09/02 00:12:09;;;;;;;6.03;4.07;;;;;;;24.09;45.39;98859.91;5081846;28;20215;-65
2021/09/02 00:14:36;;;;;;;6.73;4.47;;;;;;;24.20;45.50;98871.66;5076782;28;20886;-65
2021/09/02 00:17:04;;;;;;;5.10;3.73;;;;;;;24.51;44.34;98882.41;5060753;28;20211;-66
2021/09/02 00:19:31;;;;;;;6.47;4.03;;;;;;;24.49;43.67;98878.31;5078341;28;20225;-66
2021/09/02 00:21:59;;;;;;;6.57;4.47;;;;;;;24.71;43.80;98878.94;5074514;28;20209;-65
2021/09/02 00:24:26;;;;;;;6.20;4.00;;;;;;;24.52;44.06;98878.59;5083102;28;20208;-65
2021/09/02 00:26:53;;;;;;;6.47;4.50;;;;;;;24.41;44.59;98871.47;5080323;28;20202;-65
2021/09/02 00:29:22;;;;;;;5.27;3.80;;;;;;;24.61;44.17;98876.19;5073776;28;20226;-65
2021/09/02 00:31:49;;;;;;;5.97;4.37;;;;;;;24.85;43.56;98880.06;5074915;28;20201;-65
2021/09/02 00:34:16;;;;;;;8.43;4.50;;;;;;;24.81;43.62;98873.50;5082143;28;20201;-66
2021/09/02 00:36:44;;;;;;;7.03;3.87;;;;;;;24.72;42.80;98878.66;5070134;28;20236;-66
2021/09/02 00:39:11;;;;;;;7.40;3.77;;;;;;;24.32;43.85;98867.63;5054621;28;20221;-65
2021/09/02 00:41:39;;;;;;;8.73;4.93;;;;;;;24.31;44.58;98870.59;5078523;28;20208;-66
2021/09/02 00:44:06;;;;;;;6.50;4.17;;;;;;;24.21;44.83;98868.66;5079038;28;20202;-65
2021/09/02 00:46:35;;;;;;;6.80;4.30;;;;;;;24.08;45.57;98855.56;5059510;28;20271;-65
2021/09/02 00:49:02;;;;;;;6.67;4.50;;;;;;;24.32;44.53;98859.44;5058498;28;20207;-66
2021/09/02 00:51:30;;;;;;;6.80;4.63;;;;;;;24.07;45.59;98867.53;5073589;28;20200;-67
2021/09/02 00:53:58;;;;;;;6.70;4.33;;;;;;;24.09;45.33;98849.00;5074449;28;20294;-65
2021/09/02 00:56:27;;;;;;;11.00;5.27;;;;;;;24.01;45.28;98859.59;5070936;28;20202;-66
2021/09/02 00:58:54;;;;;;;8.23;4.77;;;;;;;23.99;46.07;98848.97;5088158;28;20224;-66
2021/09/02 01:01:22;;;;;;;6.77;4.60;;;;;;;24.10;45.35;98849.81;5063568;28;20287;-67
2021/09/02 01:03:51;;;;;;;5.97;4.60;;;;;;;23.89;45.88;98851.63;5068124;28;20611;-67
2021/09/02 01:06:18;;;;;;;7.47;4.43;;;;;;;24.09;45.84;98845.44;5079434;28;20211;-66
2021/09/02 01:08:47;;;;;;;7.23;4.23;;;;;;;23.97;45.90;98844.84;5076434;28;20596;-66
2021/09/02 01:11:14;;;;;;;6.83;4.40;;;;;;;23.90;46.23;98844.25;5070360;28;20228;-67
2021/09/02 01:13:42;;;;;;;6.33;4.50;;;;;;;23.49;47.54;98839.66;5075255;28;20301;-67
2021/09/02 01:16:09;;;;;;;8.20;4.93;;;;;;;23.94;45.33;98848.09;5068495;28;20286;-66
2021/09/02 01:18:36;;;;;;;8.00;4.60;;;;;;;24.11;45.79;98854.19;5068482;28;20210;-66
2021/09/02 01:21:06;;;;;;;8.23;4.63;;;;;;;24.17;45.00;98844.94;5069401;28;20258;-65
2021/09/02 01:23:38;;;;;;;8.37;4.83;;;;;;;24.08;45.67;98846.53;5076414;28;20668;-65
2021/09/02 01:26:15;;;;;;;8.27;4.80;;;;;;;23.90;45.72;98847.00;5060061;28;20206;-66
2021/09/02 01:28:42;;;;;;;10.83;4.90;;;;;;;24.05;45.29;98836.97;5062093;28;20215;-65
2021/09/02 01:31:11;;;;;;;8.73;4.97;;;;;;;23.52;46.64;98844.59;5063186;28;20761;-65
2021/09/02 01:33:40;;;;;;;8.03;4.80;;;;;;;23.68;46.29;98841.69;5081103;28;20213;-66
2021/09/02 01:36:07;;;;;;;7.70;4.97;;;;;;;23.64;46.71;98846.03;5074569;28;20200;-66
2021/09/02 01:38:36;;;;;;;8.07;5.23;;;;;;;24.01;45.85;98840.53;5071974;28;20217;-65
2021/09/02 01:41:03;;;;;;;8.30;4.77;;;;;;;23.72;47.01;98831.06;5078942;28;20213;-65
2021/09/02 01:43:30;;;;;;;9.47;5.53;;;;;;;23.99;45.86;98832.59;5067343;28;20207;-65
2021/09/02 01:45:58;;;;;;;7.23;4.83;;;;;;;23.88;45.60;98830.88;5073255;28;20214;-67
2021/09/02 01:48:25;;;;;;;8.80;5.13;;;;;;;24.00;45.60;98826.03;5081136;28;20201;-66
2021/09/02 01:50:52;;;;;;;8.23;5.37;;;;;;;23.80;46.06;98833.28;5078276;28;20232;-65
2021/09/02 01:53:20;;;;;;;9.30;5.37;;;;;;;23.68;46.62;98829.97;5058985;28;20633;-65
2021/09/02 01:55:49;;;;;;;9.03;5.23;;;;;;;23.92;45.73;98834.72;5071391;28;20231;-65
2021/09/02 01:58:16;;;;;;;7.47;5.00;;;;;;;23.88;45.27;98830.88;5076219;28;20201;-67
2021/09/02 02:00:44;;;;;;;7.90;5.20;;;;;;;23.54;47.03;98826.88;5086294;28;20227;-65
2021/09/02 02:03:11;;;;;;;7.70;5.23;;;;;;;23.84;46.29;98834.38;5068181;28;20203;-66
2021/09/02 02:05:39;;;;;;;10.23;5.60;;;;;;;24.08;45.44;98827.44;5072641;28;20588;-65
2021/09/02 02:08:06;;;;;;;8.13;5.27;;;;;;;24.45;43.60;98837.09;5076657;28;20204;-67
2021/09/02 02:10:34;;;;;;;8.27;4.77;;;;;;;24.17;43.25;98831.28;5065887;28;20689;-65
2021/09/02 02:13:03;;;;;;;8.37;5.07;;;;;;;23.84;44.07;98834.38;5069273;28;20261;-66
2021/09/02 02:15:31;;;;;;;7.67;4.87;;;;;;;23.51;46.15;98834.78;5075857;28;20211;-66
2021/09/02 02:17:59;;;;;;;8.93;5.80;;;;;;;23.85;45.59;98825.13;5074383;28;20227;-65
2021/09/02 02:20:26;;;;;;;10.23;5.13;;;;;;;23.08;46.21;98832.25;5079313;28;20253;-65
2021/09/02 02:22:53;;;;;;;8.80;5.27;;;;;;;23.57;45.79;98831.78;5081503;28;20210;-65
2021/09/02 02:25:21;;;;;;;7.50;5.00;;;;;;;23.45;47.19;98824.91;5065396;28;20212;-66
2021/09/02 02:27:48;;;;;;;7.83;5.30;;;;;;;23.95;44.99;98827.91;5070555;28;20568;-66
2021/09/02 02:30:19;;;;;;;7.80;5.47;;;;;;;23.60;45.57;98825.81;5058843;28;20247;-66
2021/09/02 02:32:46;;;;;;;7.27;5.47;;;;;;;23.85;45.52;98830.56;5065328;28;20217;-66
2021/09/02 02:35:15;;;;;;;7.70;5.13;;;;;;;23.59;45.00;98829.63;5077697;28;20231;-66
2021/09/02 02:37:42;;;;;;;8.93;5.63;;;;;;;23.34;46.99;98826.75;5070829;28;20208;-65
2021/09/02 02:40:11;;;;;;;8.57;5.33;;;;;;;23.47;46.89;98825.47;5061433;28;20708;-65
2021/09/02 02:42:39;;;;;;;7.33;5.13;;;;;;;23.53;44.98;98829.88;5076978;28;20208;-66
2021/09/02 02:45:07;;;;;;;8.70;5.43;;;;;;;23.44;46.02;98826.00;5056889;28;20605;-65
2021/09/02 02:47:35;;;;;;;8.10;4.97;;;;;;;23.31;46.98;98824.56;5055960;28;20208;-66
2021/09/02 02:50:03;;;;;;;9.60;5.23;;;;;;;23.97;44.52;98829.28;5081922;28;20233;-65
2021/09/02 02:52:31;;;;;;;8.60;5.37;;;;;;;23.35;45.58;98830.31;5083422;28;20215;-66
2021/09/02 02:54:58;;;;;;;10.43;4.90;;;;;;;23.68;45.31;98821.78;5075748;28;20201;-65
2021/09/02 02:57:25;;;;;;;8.50;5.13;;;;;;;23.70;45.30;98827.78;5057050;28;20210;-65
2021/09/02 02:59:52;;;;;;;10.80;5.73;;;;;;;23.25;46.38;98824.81;5071782;28;20238;-66
2021/09/02 03:02:20;;;;;;;8.90;5.33;;;;;;;23.41;46.27;98824.63;5080269;28;20738;-65
2021/09/02 03:04:48;;;;;;;9.13;5.80;;;;;;;23.19;47.67;98817.66;5075283;28;20308;-65
2021/09/02 03:07:16;;;;;;;9.00;5.50;;;;;;;23.55;46.09;98819.50;5069407;28;20199;-65
2021/09/02 03:09:43;;;;;;;8.03;5.60;;;;;;;23.86;45.38;98824.06;5063993;28;20229;-65
2021/09/02 03:12:10;;;;;;;7.70;5.40;;;;;;;23.56;44.82;98823.91;5077591;28;20210;-65
2021/09/02 03:14:38;;;;;;;6.77;5.07;;;;;;;23.52;45.67;98828.25;5082557;28;20254;-65
2021/09/02 03:17:05;;;;;;;8.53;5.63;;;;;;;23.18;47.09;98827.75;5076511;28;20203;-65
2021/09/02 03:19:32;;;;;;;8.57;5.00;;;;;;;23.61;45.25;98823.94;5078856;28;20220;-65
2021/09/02 03:22:02;;;;;;;9.00;5.67;;;;;;;23.38;46.94;98818.88;5071374;28;20195;-65
2021/09/02 03:24:29;;;;;;;13.30;6.20;;;;;;;23.37;46.58;98823.53;5060895;28;20199;-65
2021/09/02 03:26:56;;;;;;;9.43;5.60;;;;;;;23.18;45.15;98835.09;5061759;28;20237;-66
2021/09/02 03:29:23;;;;;;;7.37;4.93;;;;;;;23.36;45.57;98831.94;5066307;28;20228;-66
2021/09/02 03:31:50;;;;;;;6.93;5.40;;;;;;;23.61;45.44;98832.13;5078750;28;20235;-65
2021/09/02 03:34:18;;;;;;;9.07;5.50;;;;;;;22.94;47.51;98825.59;5078093;28;20209;-66
2021/09/02 03:36:46;;;;;;;8.27;5.90;;;;;;;23.76;45.24;98833.00;5060940;28;20209;-65
2021/09/02 03:39:15;;;;;;;9.43;5.90;;;;;;;23.81;44.47;98832.22;5075260;28;20219;-66
2021/09/02 03:41:42;;;;;;;9.07;6.07;;;;;;;23.52;44.98;98829.03;5068773;28;20579;-65
2021/09/02 03:44:10;;;;;;;8.87;5.80;;;;;;;23.84;44.46;98832.50;5078764;28;20236;-66
2021/09/02 03:46:37;;;;;;;9.57;5.03;;;;;;;23.56;44.91;98838.34;5073380;28;20763;-65
2021/09/02 03:49:05;;;;;;;9.13;6.03;;;;;;;23.59;44.91;98842.44;5059190;28;20195;-65
2021/09/02 03:51:32;;;;;;;11.50;6.10;;;;;;;23.67;44.34;98841.94;5077821;28;20227;-65
2021/09/02 03:53:59;;;;;;;9.10;5.83;;;;;;;23.77;43.57;98840.06;5065451;28;20208;-66
2021/09/02 03:56:28;;;;;;;10.77;6.37;;;;;;;23.38;45.13;98829.78;5067358;28;20211;-65
2021/09/02 03:58:55;;;;;;;9.00;5.80;;;;;;;23.46;45.39;98832.81;5071148;28;20209;-65
2021/09/02 04:01:25;;;;;;;8.83;6.27;;;;;;;22.86;47.59;98831.53;5087961;28;20203;-65
2021/09/02 04:03:52;;;;;;;8.70;6.03;;;;;;;23.24;46.67;98825.88;5082122;28;20371;-66
2021/09/02 04:06:19;;;;;;;9.07;5.90;;;;;;;23.25;46.17;98827.53;5083759;28;20210;-65
2021/09/02 04:08:47;;;;;;;10.00;6.20;;;;;;;23.52;45.54;98833.69;5083817;28;20212;-66
2021/09/02 04:11:14;;;;;;;11.07;6.93;;;;;;;23.80;43.85;98836.84;5072850;28;20237;-65
2021/09/02 04:13:43;;;;;;;10.50;6.70;;;;;;;23.45;43.83;98841.25;5085573;28;20564;-65
2021/09/02 04:16:10;;;;;;;7.07;5.30;;;;;;;23.38;44.78;98832.50;5081517;28;20199;-65
2021/09/02 04:18:38;;;;;;;9.00;6.07;;;;;;;23.36;44.53;98840.13;5080993;28;20212;-65
2021/09/02 04:21:06;;;;;;;10.17;6.40;;;;;;;23.05;45.75;98839.03;5070417;28;20596;-65
2021/09/02 04:23:33;;;;;;;9.80;6.53;;;;;;;23.33;45.60;98833.31;5069874;28;20225;-69
2021/09/02 04:26:00;;;;;;;9.53;6.00;;;;;;;23.42;45.69;98833.63;5088303;28;20218;-71
2021/09/02 04:28:28;;;;;;;10.20;6.23;;;;;;;23.05;46.71;98838.25;5069648;28;20219;-70
2021/09/02 04:30:57;;;;;;;9.70;6.87;;;;;;;23.10;46.67;98835.56;5076922;28;20604;-67
2021/09/02 04:33:24;;;;;;;10.87;6.87;;;;;;;23.44;44.64;98832.28;5073772;28;20200;-68
2021/09/02 04:35:51;;;;;;;10.53;6.17;;;;;;;23.62;44.37;98845.44;5060605;28;20209;-67
2021/09/02 04:38:19;;;;;;;10.57;6.70;;;;;;;23.39;44.87;98828.69;5080580;28;20204;-66
2021/09/02 04:40:47;;;;;;;9.60;5.53;;;;;;;23.44;44.71;98831.44;5079598;28;20245;-66
2021/09/02 04:43:14;;;;;;;9.33;6.90;;;;;;;23.52;44.75;98828.25;5087925;28;20561;-67
2021/09/02 04:45:42;;;;;;;10.93;6.40;;;;;;;23.44;44.55;98829.56;5082169;28;20224;-67
2021/09/02 04:48:18;;;;;;;11.33;6.40;;;;;;;22.73;46.51;98840.94;5073330;28;20212;-66
2021/09/02 04:50:46;;;;;;;12.27;7.10;;;;;;;23.20;45.87;98836.47;5074517;28;20251;-66
2021/09/02 04:53:14;;;;;;;10.40;6.57;;;;;;;22.79;47.76;98841.81;5067914;28;20203;-66
2021/09/02 04:55:42;;;;;;;13.27;6.77;;;;;;;23.64;44.97;98842.47;5071783;28;20207;-66
2021/09/02 04:58:11;;;;;;;11.13;6.43;;;;;;;23.99;43.66;98835.31;5063810;28;20210;-66
2021/09/02 05:00:40;;;;;;;11.40;7.63;;;;;;;23.76;44.31;98841.16;5083785;28;20233;-66
2021/09/02 05:03:07;;;;;;;11.50;7.13;;;;;;;24.29;42.88;98840.88;5056098;28;20224;-66
2021/09/02 05:05:36;;;;;;;12.87;6.60;;;;;;;23.97;44.36;98842.13;5080502;28;20210;-66
2021/09/02 05:08:04;;;;;;;12.60;6.90;;;;;;;24.27;42.25;98843.03;5060164;28;20211;-67
2021/09/02 05:10:31;;;;;;;9.00;5.73;;;;;;;23.32;45.69;98847.19;5088828;28;20231;-66
2021/09/02 05:12:58;;;;;;;10.80;6.23;;;;;;;23.70;45.06;98835.94;5092324;28;20283;-66
2021/09/02 05:15:26;;;;;;;9.47;6.50;;;;;;;23.88;44.52;98843.69;5078443;28;20203;-65
2021/09/02 05:17:53;;;;;;;8.43;6.07;;;;;;;23.91;43.84;98852.19;5073619;28;20213;-66
2021/09/02 05:20:21;;;;;;;8.97;5.77;;;;;;;24.41;42.80;98854.25;5067217;28;20222;-66
2021/09/02 05:22:49;;;;;;;11.17;6.37;;;;;;;24.63;42.28;98857.66;5075302;28;20200;-66
2021/09/02 05:25:17;;;;;;;9.13;6.27;;;;;;;24.32;42.96;98853.97;5072301;28;20209;-66
2021/09/02 05:27:44;;;;;;;10.07;6.87;;;;;;;24.37;42.59;98853.19;5079972;28;20551;-67
2021/09/02 05:30:15;;;;;;;11.30;6.77;;;;;;;24.18;42.90;98850.09;5085453;28;20597;-67
2021/09/02 05:32:43;;;;;;;10.73;6.50;;;;;;;24.36;42.46;98855.09;5074818;28;20231;-67
2021/09/02 05:35:11;;;;;;;11.53;6.70;;;;;;;24.32;42.85;98850.44;5059835;28;20261;-67
2021/09/02 05:37:38;;;;;;;11.27;6.83;;;;;;;24.27;43.04;98853.97;5060838;28;20197;-67
2021/09/02 05:40:08;;;;;;;10.30;6.70;;;;;;;24.36;43.28;98852.34;5069147;28;20214;-67
2021/09/02 05:42:36;;;;;;;9.43;5.97;;;;;;;24.39;43.37;98848.28;5071025;28;20196;-69
2021/09/02 05:45:04;;;;;;;9.67;6.53;;;;;;;24.56;43.13;98851.56;5070591;28;20202;-67
2021/09/02 05:47:31;;;;;;;13.17;7.37;;;;;;;24.71;43.05;98849.72;5056372;28;20223;-67
2021/09/02 05:49:58;;;;;;;12.03;6.50;;;;;;;24.58;43.52;98841.22;5066925;28;20232;-67
2021/09/02 05:52:26;;;;;;;10.27;7.03;;;;;;;24.61;43.34;98837.97;5053533;28;20222;-68
2021/09/02 05:54:55;;;;;;;10.60;6.93;;;;;;;24.75;43.11;98836.34;5071077;28;20198;-70
2021/09/02 05:57:24;;;;;;;16.90;7.60;;;;;;;24.92;42.84;98840.47;5086686;28;20292;-68
2021/09/02 05:59:51;;;;;;;13.20;7.13;;;;;;;25.03;42.53;98842.09;5053647;28;20233;-68
2021/09/02 06:02:19;;;;;;;11.23;7.47;;;;;;;25.15;42.97;98844.56;5060526;28;20196;-69
2021/09/02 06:04:46;;;;;;;11.77;7.60;;;;;;;25.39;42.10;98849.19;5070580;28;20212;-68
2021/09/02 06:07:13;;;;;;;12.23;7.43;;;;;;;25.35;42.65;98845.41;5072745;22;20230;-74
2021/09/02 06:09:41;;;;;;;14.17;7.93;;;;;;;25.29;42.48;98851.16;5061524;28;20219;-69
2021/09/02 06:12:08;;;;;;;10.70;7.43;;;;;;;25.46;42.47;98848.94;5065268;28;20227;-68
2021/09/02 06:14:37;;;;;;;12.40;8.00;;;;;;;25.65;42.84;98844.50;5068277;28;20212;-69
2021/09/02 06:17:05;;;;;;;15.63;7.77;;;;;;;25.81;42.50;98852.41;5063552;28;20221;-68
2021/09/02 06:19:32;;;;;;;13.13;7.27;;;;;;;25.98;41.91;98852.09;5058179;28;20206;-69
2021/09/02 06:21:59;;;;;;;9.63;7.13;;;;;;;25.85;41.74;98844.47;5065356;28;20281;-69
2021/09/02 06:24:27;;;;;;;10.57;7.60;;;;;;;25.73;42.04;98849.41;5072076;28;20208;-69
2021/09/02 06:26:54;;;;;;;13.43;7.50;;;;;;;25.08;42.17;98861.22;5071712;28;20228;-68
2021/09/02 06:29:21;;;;;;;12.90;7.40;;;;;;;24.88;42.59;98857.69;5068150;28;20238;-68
2021/09/02 06:31:50;;;;;;;9.90;6.87;;;;;;;25.28;42.44;98860.44;5065871;28;20312;-69
2021/09/02 06:34:17;;;;;;;10.40;6.77;;;;;;;25.96;40.94;98867.97;5085583;28;20203;-69
2021/09/02 06:36:45;;;;;;;20.23;7.37;;;;;;;25.54;41.76;98870.25;5067478;28;20314;-69
2021/09/02 06:39:12;;;;;;;12.37;6.97;;;;;;;25.53;41.48;98871.34;5063607;28;20207;-69
2021/09/02 06:41:39;;;;;;;14.27;6.87;;;;;;;26.01;40.28;98871.53;5064292;28;20555;-70
2021/09/02 06:44:07;;;;;;;11.20;6.80;;;;;;;25.66;40.60;98871.59;5060349;28;20244;-69
2021/09/02 06:46:34;;;;;;;10.67;6.53;;;;;;;25.05;42.34;98866.41;5060802;28;20231;-69
2021/09/02 06:49:03;;;;;;;10.13;6.33;;;;;;;25.31;41.83;98871.63;5068846;28;20208;-70
2021/09/02 06:51:30;;;;;;;10.63;6.30;;;;;;;26.51;39.27;98871.25;5071826;28;20225;-70
2021/09/02 06:53:57;;;;;;;9.43;6.43;;;;;;;26.88;38.34;98876.28;5064933;28;20201;-70
2021/09/02 06:56:25;;;;;;;13.30;6.93;;;;;;;26.12;39.56;98875.03;5067019;28;20591;-70
2021/09/02 06:58:52;;;;;;;11.23;6.87;;;;;;;27.00;37.93;98888.50;5068232;28;20682;-70
2021/09/02 07:01:19;;;;;;;13.67;7.43;;;;;;;26.35;39.24;98882.59;5061521;28;20207;-73
2021/09/02 07:03:46;;;;;;;11.77;6.97;;;;;;;27.01;37.54;98886.59;5067491;28;20327;-70
2021/09/02 07:06:15;;;;;;;13.13;7.23;;;;;;;25.18;41.52;98877.63;5063903;28;20256;-70
2021/09/02 07:08:43;;;;;;;10.30;6.67;;;;;;;26.08;39.26;98885.72;5068234;28;20205;-70
2021/09/02 07:11:10;;;;;;;10.10;6.60;;;;;;;27.06;37.32;98894.78;5064033;28;20202;-71
2021/09/02 07:13:37;;;;;;;10.27;6.90;;;;;;;27.67;36.64;98883.00;5069020;28;20201;-71
2021/09/02 07:16:05;;;;;;;10.50;6.30;;;;;;;27.74;36.42;98890.91;5059857;28;20216;-71
2021/09/02 07:18:33;;;;;;;9.23;6.97;;;;;;;25.81;39.72;98876.19;5071294;28;20206;-71
2021/09/02 07:21:00;;;;;;;11.47;7.07;;;;;;;24.70;42.27;98877.31;5063877;28;20220;-71
2021/09/02 07:23:29;;;;;;;11.47;7.17;;;;;;;24.58;43.11;98871.25;5066213;28;20662;-71
2021/09/02 07:25:56;;;;;;;9.97;6.80;;;;;;;26.42;38.64;98880.38;5065964;28;20205;-71
2021/09/02 07:28:23;;;;;;;11.43;6.90;;;;;;;28.01;35.57;98897.50;5069755;28;20197;-71
2021/09/02 07:30:51;;;;;;;9.20;5.67;;;;;;;26.50;37.14;98888.81;5067050;28;20211;-71
2021/09/02 07:33:18;;;;;;;9.23;6.20;;;;;;;27.96;35.06;98902.22;5070806;28;20689;-72
2021/09/02 07:35:45;;;;;;;11.20;5.90;;;;;;;25.26;40.16;98898.13;5064597;28;20202;-71
2021/09/02 07:38:13;;;;;;;8.67;6.20;;;;;;;25.29;40.29;98892.13;5073282;28;20221;-71
2021/09/02 07:40:41;;;;;;;9.20;5.60;;;;;;;27.20;36.87;98895.78;5070322;28;20216;-71
2021/09/02 07:43:08;;;;;;;9.97;5.73;;;;;;;27.98;34.56;98900.81;5069409;28;20217;-71
2021/09/02 07:45:36;;;;;;;12.80;6.47;;;;;;;27.19;35.97;98905.94;5064343;28;20201;-71
2021/09/02 07:48:03;;;;;;;11.27;7.20;;;;;;;24.92;41.68;98886.88;5071539;28;20607;-71
2021/09/02 07:50:30;;;;;;;8.93;6.63;;;;;;;26.19;38.11;98902.94;5066629;28;20205;-72
2021/09/02 07:52:58;;;;;;;13.20;6.80;;;;;;;25.66;40.00;98895.38;5072357;28;20222;-71
2021/09/02 07:55:25;;;;;;;13.30;6.83;;;;;;;28.10;35.24;98894.94;5066211;28;20202;-71
2021/09/02 07:57:54;;;;;;;13.03;6.67;;;;;;;28.56;33.85;98910.59;5064733;28;20245;-70
2021/09/02 08:00:21;;;;;;;9.83;5.90;;;;;;;26.82;37.54;98897.44;5066543;28;20208;-72
2021/09/02 08:02:48;;;;;;;9.20;5.97;;;;;;;28.46;33.98;98915.38;5065003;28;20210;-70
2021/09/02 08:05:16;;;;;;;13.00;6.93;;;;;;;27.75;36.77;98904.34;5066280;28;20866;-71
2021/09/02 08:07:45;;;;;;;11.20;6.60;;;;;;;28.98;33.28;98920.75;5066247;28;20243;-71
2021/09/02 08:10:13;;;;;;;11.70;6.30;;;;;;;29.16;33.17;98917.16;5071121;28;20213;-71
2021/09/02 08:12:40;;;;;;;13.40;6.57;;;;;;;29.74;32.31;98921.97;5070511;28;20232;-70
2021/09/02 08:15:10;;;;;;;12.57;6.27;;;;;;;27.70;35.46;98920.03;5065784;28;20210;-71
2021/09/02 08:17:38;;;;;;;11.77;6.53;;;;;;;29.59;32.19;98924.19;5066366;28;20612;-72
2021/09/02 08:20:06;;;;;;;9.47;6.37;;;;;;;28.78;33.85;98918.25;5060429;28;20223;-71
2021/09/02 08:22:33;;;;;;;12.43;7.13;;;;;;;27.81;35.15;98924.34;5071437;28;20214;-70
2021/09/02 08:25:01;;;;;;;11.53;6.37;;;;;;;28.82;34.71;98909.13;5070166;28;20213;-71
2021/09/02 08:27:28;;;;;;;11.20;6.73;;;;;;;30.24;32.11;98921.03;5064633;28;20577;-75
2021/09/02 08:29:56;;;;;;;14.83;6.27;;;;;;;30.02;32.05;98925.59;5069893;28;20289;-72
2021/09/02 08:32:24;;;;;;;10.10;6.07;;;;;;;27.27;35.63;98918.22;5073857;28;20228;-71
2021/09/02 08:34:51;;;;;;;8.20;5.30;;;;;;;28.72;34.13;98909.25;5065559;28;20217;-72
2021/09/02 08:37:19;;;;;;;11.13;6.63;;;;;;;28.56;35.33;98915.25;5066576;28;20221;-71
2021/09/02 08:39:46;;;;;;;12.20;6.60;;;;;;;30.16;32.42;98924.50;5065573;28;20205;-72
2021/09/02 08:42:16;;;;;;;12.00;7.00;;;;;;;29.95;32.01;98916.91;5056016;28;20198;-72
2021/09/02 08:44:43;;;;;;;9.20;6.17;;;;;;;29.17;33.54;98911.38;5068202;28;20208;-71
2021/09/02 08:47:12;;;;;;;12.13;6.27;;;;;;;30.15;32.60;98919.31;5068256;28;20244;-73
2021/09/02 08:49:41;;;;;;;12.90;6.40;;;;;;;29.18;33.87;98903.94;5063645;28;20221;-72
2021/09/02 08:52:08;;;;;;;12.03;6.50;;;;;;;29.36;32.86;98916.81;5065686;28;20274;-72
2021/09/02 08:54:37;;;;;;;14.67;6.37;;;;;;;30.54;31.51;98917.66;5077421;28;20678;-72
2021/09/02 08:57:04;;;;;;;11.37;6.67;;;;;;;31.45;30.37;98916.41;5073646;28;20232;-72
2021/09/02 08:59:31;;;;;;;10.97;6.20;;;;;;;28.18;34.64;98905.28;5068385;28;20219;-72
2021/09/02 09:01:59;;;;;;;10.93;5.57;;;;;;;29.34;32.68;98910.81;5063847;28;20658;-72
2021/09/02 09:04:35;;;;;;;9.17;6.00;;;;;;;28.84;33.93;98903.31;5054139;28;20206;-73
2021/09/02 09:07:04;;;;;;;9.07;6.03;;;;;;;31.54;29.27;98912.59;5058625;28;20232;-71
2021/09/02 09:09:31;;;;;;;9.97;5.97;;;;;;;31.66;29.42;98906.47;5074422;28;20299;-70
2021/09/02 09:12:00;;;;;;;14.13;6.37;;;;;;;29.43;32.21;98906.25;5081279;28;20228;-70
2021/09/02 09:14:28;;;;;;;7.93;5.80;;;;;;;29.31;32.46;98904.00;5067870;28;20666;-71
2021/09/02 09:16:57;;;;;;;10.43;6.53;;;;;;;30.65;30.15;98916.31;5072278;28;20225;-71
2021/09/02 09:19:39;;;;;;;7.60;6.03;;;;;;;29.32;32.45;98905.63;5073024;28;20202;-71
2021/09/02 09:22:11;;;;;;;9.50;5.70;;;;;;;28.34;33.61;98909.47;5062199;28;20185;-71
2021/09/02 09:24:48;;;;;;;9.97;5.47;;;;;;;29.22;32.98;98896.69;5077154;28;20193;-71
2021/09/02 09:27:17;;;;;;;8.47;6.00;;;;;;;29.49;32.55;98883.84;5062321;28;20231;-71
2021/09/02 09:29:44;;;;;;;9.20;5.70;;;;;;;29.91;31.77;98896.63;5069800;28;20214;-72
2021/09/02 09:32:14;;;;;;;9.53;6.37;;;;;;;29.12;33.42;98891.38;5069867;28;20579;-71
2021/09/02 09:34:49;;;;;;;8.13;5.93;;;;;;;29.85;33.21;98886.81;5070320;28;20209;-71
2021/09/02 09:37:19;;;;;;;7.67;5.33;;;;;;;29.70;33.32;98884.34;5068442;28;20224;-71
2021/09/02 09:39:48;;;;;;;8.47;5.93;;;;;;;29.93;32.95;98880.59;5072564;28;20289;-71
2021/09/02 09:42:18;;;;;;;10.53;5.77;;;;;;;29.41;33.44;98876.31;5061389;28;20256;-71
2021/09/02 09:44:45;;;;;;;8.87;5.60;;;;;;;31.24;31.26;98873.91;5052696;28;20191;-71
2021/09/02 09:47:15;;;;;;;10.73;5.87;;;;;;;31.52;30.44;98873.44;5065673;28;20304;-71
2021/09/02 09:49:52;;;;;;;8.17;4.93;;;;;;;32.15;29.79;98871.19;5068554;28;20194;-71
2021/09/02 09:52:26;;;;;;;9.30;5.73;;;;;;;30.62;32.00;98881.13;5065589;28;20302;-71
2021/09/02 09:54:55;;;;;;;7.53;5.30;;;;;;;32.73;28.49;98876.41;5064611;28;20221;-71
2021/09/02 09:57:23;;;;;;;8.93;5.10;;;;;;;31.82;28.68;98880.16;5067483;28;20291;-71
2021/09/02 09:59:54;;;;;;;7.70;5.10;;;;;;;32.42;28.70;98870.13;5072146;28;20209;-71
2021/09/02 10:02:22;;;;;;;9.37;4.77;;;;;;;31.04;31.21;98864.16;5071826;28;20202;-74
2021/09/02 10:04:49;;;;;;;8.80;5.00;;;;;;;30.59;31.44;98864.34;5065596;28;20304;-78
2021/09/02 10:07:17;;;;;;;8.97;5.17;;;;;;;30.08;31.82;98861.03;5067056;28;20230;-75
2021/09/02 10:09:46;;;;;;;6.87;5.13;;;;;;;31.33;29.38;98881.13;5071024;28;20209;-73
2021/09/02 10:12:13;;;;;;;7.00;4.83;;;;;;;31.98;29.50;98867.53;5061673;28;20260;-73
2021/09/02 10:14:41;;;;;;;5.60;4.43;;;;;;;32.58;28.91;98874.91;5071587;28;20203;-72
2021/09/02 10:17:08;;;;;;;8.60;4.77;;;;;;;31.90;29.43;98863.63;5065414;28;20571;-71
2021/09/02 10:19:36;;;;;;;6.37;4.97;;;;;;;30.00;31.23;98859.78;5072012;28;20210;-71
2021/09/02 10:22:04;;;;;;;7.23;4.97;;;;;;;30.95;30.83;98851.41;5060653;28;20293;-73
2021/09/02 10:24:37;;;;;;;9.13;4.73;;;;;;;33.20;27.79;98856.88;5079508;28;20208;-72
2021/09/02 10:27:36;;;;;;;8.83;4.60;;;;;;;30.97;30.01;98857.44;5069868;28;20232;-78
2021/09/02 10:30:22;;;;;;;9.07;4.53;;;;;;;31.80;28.66;98857.53;5071663;28;20560;-79
2021/09/02 10:32:49;;;;;;;9.07;4.63;;;;;;;31.10;29.83;98857.38;5064358;28;20579;-78
2021/09/02 10:35:35;;;;;;;6.83;4.30;;;;;;;32.77;27.72;98846.94;5074031;28;20199;-80
2021/09/02 10:38:05;;;;;;;5.20;4.53;;;;;;;32.36;27.97;98852.91;5066552;28;20707;-79
2021/09/02 10:40:46;;;;;;;5.93;4.07;;;;;;;30.06;29.89;98850.31;5075582;28;20262;-80
2021/09/02 10:43:15;;;;;;;5.60;4.07;;;;;;;29.64;30.10;98850.59;5063651;28;20283;-80
2021/09/02 10:45:43;;;;;;;7.33;4.60;;;;;;;30.76;29.76;98850.78;5067957;28;20195;-81
2021/09/02 10:48:18;;;;;;;8.73;4.17;;;;;;;31.33;28.91;98850.78;5069804;28;20222;-79
2021/09/02 10:50:47;;;;;;;4.77;3.57;;;;;;;32.39;27.01;98845.94;5073080;28;20221;-78
2021/09/02 10:53:16;;;;;;;6.17;4.17;;;;;;;30.84;29.32;98836.25;5066235;28;20234;-77
2021/09/02 10:55:52;;;;;;;8.73;4.60;;;;;;;31.71;28.07;98837.31;5066879;28;20207;-78
2021/09/02 10:58:48;;;;;;;7.37;4.20;;;;;;;31.44;28.71;98838.34;5066654;28;20608;-74
2021/09/02 11:01:39;;;;;;;8.07;4.20;;;;;;;30.47;29.78;98833.78;5050523;28;20219;-71
2021/09/02 11:04:13;;;;;;;5.53;3.30;;;;;;;32.12;27.77;98832.34;5067862;28;20279;-71
2021/09/02 11:06:48;;;;;;;6.53;4.40;;;;;;;32.41;26.74;98818.78;5071477;28;20231;-71
2021/09/02 11:09:29;;;;;;;6.27;4.27;;;;;;;32.55;27.00;98827.72;5068356;28;20348;-70
2021/09/02 11:11:57;;;;;;;6.10;4.83;;;;;;;31.38;29.03;98813.94;5068112;28;20234;-71
2021/09/02 11:14:26;;;;;;;7.50;4.50;;;;;;;30.88;29.93;98820.72;5065967;28;20235;-72
2021/09/02 11:16:54;;;;;;;7.17;4.63;;;;;;;31.27;29.67;98818.09;5065661;28;20226;-84
2021/09/02 11:19:32;;;;;;;9.30;4.63;;;;;;;31.90;28.70;98815.84;5072367;28;20278;-71
2021/09/02 11:22:10;;;;;;;5.23;3.87;;;;;;;30.31;27.98;98832.50;5068031;28;20212;-70
2021/09/02 11:24:38;;;;;;;5.50;3.30;;;;;;;31.04;26.39;98828.31;5065940;28;20201;-72
2021/09/02 11:27:06;;;;;;;5.77;3.77;;;;;;;30.29;27.09;98829.22;5065511;28;20226;-71
2021/09/02 11:29:35;;;;;;;7.60;3.30;;;;;;;31.10;26.18;98824.28;5064063;28;20211;-72
2021/09/02 11:32:03;;;;;;;4.00;3.23;;;;;;;32.42;25.44;98812.09;5069889;28;20657;-71
2021/09/02 11:34:31;;;;;;;5.97;3.50;;;;;;;33.00;24.99;98816.03;5069809;28;20236;-70
2021/09/02 11:36:59;;;;;;;4.33;3.70;;;;;;;33.16;24.67;98821.91;5076215;28;20653;-70